SWA518 KOKC-KDCA
Flight info
| Callsign | SWA518 |
|---|---|
| Flight time | N/A |
| Altitude | 39000 |
| Route | TRUPR3 DRLER FAM APALO IIU Q108 SITTR TRUPS5 |
| Aircraft | B738/M-SADE2E3GIJ4RWZ/LB1D1 |
Departure
| Time | 2026-04-28 22:12 |
|---|---|
| Airport | OKC Will Rogers World Airport (KOKC) |
Arrival
| Time | N/A |
|---|---|
| Airport | Ronald Reagan Washington National Airport (KDCA) |
| Time | Latitude | Longitude | Altitude | Speed | Heading |
|---|---|---|---|---|---|
| 2026-04-28 21:41 | 35.39452 | -97.59658 | 1296 ft | 0 kts | 15° |
| 2026-04-28 22:03 | 35.39444 | -97.59661 | 1296 ft | 4 kts | 15° |
| 2026-04-28 22:03 | 35.39424 | -97.59667 | 1296 ft | 4 kts | 15° |
| 2026-04-28 22:03 | 35.39404 | -97.59674 | 1296 ft | 4 kts | 15° |
| 2026-04-28 22:03 | 35.39392 | -97.59678 | 1296 ft | 0 kts | 15° |
| 2026-04-28 22:06 | 35.39404 | -97.59684 | 1296 ft | 5 kts | 323° |
| 2026-04-28 22:06 | 35.39409 | -97.59723 | 1296 ft | 5 kts | 275° |
| 2026-04-28 22:07 | 35.39413 | -97.59760 | 1296 ft | 4 kts | 273° |
| 2026-04-28 22:07 | 35.39410 | -97.59790 | 1296 ft | 4 kts | 251° |
| 2026-04-28 22:07 | 35.39347 | -97.59825 | 1294 ft | 14 kts | 181° |
| 2026-04-28 22:07 | 35.39249 | -97.59849 | 1292 ft | 15 kts | 211° |
| 2026-04-28 22:08 | 35.39217 | -97.59958 | 1290 ft | 14 kts | 270° |
| 2026-04-28 22:08 | 35.39215 | -97.60073 | 1291 ft | 13 kts | 270° |
| 2026-04-28 22:08 | 35.39216 | -97.60211 | 1293 ft | 18 kts | 270° |
| 2026-04-28 22:08 | 35.39208 | -97.60339 | 1294 ft | 10 kts | 240° |
| 2026-04-28 22:09 | 35.39136 | -97.60363 | 1295 ft | 15 kts | 176° |
| 2026-04-28 22:09 | 35.39030 | -97.60357 | 1295 ft | 15 kts | 177° |
| 2026-04-28 22:09 | 35.38928 | -97.60350 | 1295 ft | 14 kts | 176° |
| 2026-04-28 22:09 | 35.38828 | -97.60344 | 1296 ft | 19 kts | 177° |
| 2026-04-28 22:10 | 35.38674 | -97.60334 | 1293 ft | 25 kts | 179° |
| 2026-04-28 22:10 | 35.38483 | -97.60334 | 1289 ft | 29 kts | 180° |
| 2026-04-28 22:10 | 35.38289 | -97.60333 | 1287 ft | 26 kts | 179° |
| 2026-04-28 22:10 | 35.38112 | -97.60334 | 1286 ft | 21 kts | 180° |
| 2026-04-28 22:11 | 35.37967 | -97.60337 | 1288 ft | 16 kts | 192° |
| 2026-04-28 22:11 | 35.37919 | -97.60403 | 1289 ft | 10 kts | 262° |
| 2026-04-28 22:11 | 35.37922 | -97.60528 | 1289 ft | 16 kts | 282° |
| 2026-04-28 22:11 | 35.38027 | -97.60575 | 1288 ft | 22 kts | 1° |
| 2026-04-28 22:12 | 35.38323 | -97.60573 | 1287 ft | 76 kts | 0° |
| 2026-04-28 22:12 | 35.39064 | -97.60573 | 1295 ft | 135 kts | 0° |
| 2026-04-28 22:12 | 35.40111 | -97.60580 | 1698 ft | 154 kts | 359° |
| 2026-04-28 22:12 | 35.41145 | -97.60632 | 2619 ft | 145 kts | 357° |
| 2026-04-28 22:13 | 35.42178 | -97.60727 | 3042 ft | 160 kts | 357° |
| 2026-04-28 22:13 | 35.43368 | -97.60469 | 3183 ft | 191 kts | 26° |
| 2026-04-28 22:13 | 35.44341 | -97.59244 | 3413 ft | 215 kts | 58° |
| 2026-04-28 22:13 | 35.44928 | -97.57516 | 3776 ft | 229 kts | 65° |
| 2026-04-28 22:14 | 35.45534 | -97.55587 | 3913 ft | 252 kts | 65° |
| 2026-04-28 22:14 | 35.45963 | -97.54217 | 4190 ft | 257 kts | 65° |
| 2026-04-28 22:14 | 35.46618 | -97.52163 | 4665 ft | 263 kts | 66° |
| 2026-04-28 22:14 | 35.47310 | -97.50052 | 5099 ft | 269 kts | 66° |
| 2026-04-28 22:15 | 35.48022 | -97.47925 | 5654 ft | 270 kts | 65° |
| 2026-04-28 22:15 | 35.48750 | -97.45791 | 6201 ft | 273 kts | 64° |
| 2026-04-28 22:15 | 35.49498 | -97.43628 | 6681 ft | 278 kts | 64° |
| 2026-04-28 22:15 | 35.50263 | -97.41435 | 7164 ft | 282 kts | 63° |
| 2026-04-28 22:16 | 35.51041 | -97.39216 | 7689 ft | 285 kts | 64° |
| 2026-04-28 22:16 | 35.51835 | -97.36960 | 8171 ft | 290 kts | 64° |
| 2026-04-28 22:16 | 35.52643 | -97.34669 | 8682 ft | 295 kts | 64° |
| 2026-04-28 22:16 | 35.53463 | -97.32344 | 9247 ft | 299 kts | 64° |
| 2026-04-28 22:17 | 35.54294 | -97.29992 | 9762 ft | 304 kts | 65° |
| 2026-04-28 22:17 | 35.55141 | -97.27591 | 10272 ft | 308 kts | 64° |
| 2026-04-28 22:17 | 35.55998 | -97.25164 | 10770 ft | 312 kts | 64° |
| 2026-04-28 22:17 | 35.56865 | -97.22703 | 11274 ft | 316 kts | 64° |
| 2026-04-28 22:18 | 35.57746 | -97.20205 | 11774 ft | 321 kts | 65° |
| 2026-04-28 22:18 | 35.58637 | -97.17676 | 12297 ft | 325 kts | 65° |
| 2026-04-28 22:18 | 35.59541 | -97.15107 | 12812 ft | 330 kts | 64° |
| 2026-04-28 22:18 | 35.60457 | -97.12500 | 13359 ft | 334 kts | 65° |
| 2026-04-28 22:19 | 35.61385 | -97.09859 | 13883 ft | 339 kts | 65° |
| 2026-04-28 22:19 | 35.62322 | -97.07187 | 14408 ft | 342 kts | 65° |
| 2026-04-28 22:19 | 35.63265 | -97.04494 | 14960 ft | 344 kts | 65° |
| 2026-04-28 22:19 | 35.64213 | -97.01789 | 15524 ft | 346 kts | 65° |
| 2026-04-28 22:20 | 35.65167 | -96.99066 | 16067 ft | 348 kts | 65° |
| 2026-04-28 22:20 | 35.66129 | -96.96323 | 16606 ft | 351 kts | 64° |
| 2026-04-28 22:20 | 35.67226 | -96.93642 | 17136 ft | 352 kts | 58° |
| 2026-04-28 22:20 | 35.68454 | -96.91027 | 17665 ft | 354 kts | 56° |
| 2026-04-28 22:21 | 35.69705 | -96.88404 | 18211 ft | 356 kts | 56° |
| 2026-04-28 22:21 | 35.70956 | -96.85756 | 18655 ft | 359 kts | 57° |
| 2026-04-28 22:21 | 35.72207 | -96.83074 | 19061 ft | 364 kts | 57° |
| 2026-04-28 22:21 | 35.73467 | -96.80355 | 19456 ft | 368 kts | 57° |
| 2026-04-28 22:22 | 35.74737 | -96.77606 | 19880 ft | 371 kts | 57° |
| 2026-04-28 22:22 | 35.76015 | -96.74833 | 20318 ft | 374 kts | 57° |
| 2026-04-28 22:22 | 35.77301 | -96.72038 | 20728 ft | 377 kts | 56° |
| 2026-04-28 22:22 | 35.78599 | -96.69217 | 21122 ft | 381 kts | 56° |
| 2026-04-28 22:23 | 35.79908 | -96.66369 | 21527 ft | 383 kts | 56° |
| 2026-04-28 22:23 | 35.81225 | -96.63500 | 21931 ft | 386 kts | 56° |
| 2026-04-28 22:23 | 35.82553 | -96.60605 | 22323 ft | 389 kts | 56° |
| 2026-04-28 22:23 | 35.83890 | -96.57689 | 22716 ft | 392 kts | 56° |
| 2026-04-28 22:24 | 35.85236 | -96.54750 | 23085 ft | 395 kts | 56° |
| 2026-04-28 22:24 | 35.86595 | -96.51783 | 23453 ft | 399 kts | 55° |
| 2026-04-28 22:24 | 35.87962 | -96.48792 | 23782 ft | 401 kts | 55° |
| 2026-04-28 22:24 | 35.89315 | -96.45829 | 24105 ft | 403 kts | 56° |
| 2026-04-28 22:25 | 35.90691 | -96.42814 | 24457 ft | 404 kts | 56° |
| 2026-04-28 22:25 | 35.92070 | -96.39788 | 24784 ft | 406 kts | 56° |
| 2026-04-28 22:25 | 35.93456 | -96.36746 | 25092 ft | 408 kts | 56° |
| 2026-04-28 22:25 | 35.94848 | -96.33688 | 25400 ft | 409 kts | 56° |
| 2026-04-28 22:26 | 35.96244 | -96.30617 | 25718 ft | 411 kts | 56° |
| 2026-04-28 22:26 | 35.97643 | -96.27537 | 26031 ft | 412 kts | 56° |
| 2026-04-28 22:26 | 35.99048 | -96.24442 | 26330 ft | 414 kts | 56° |
| 2026-04-28 22:26 | 36.00460 | -96.21329 | 26623 ft | 416 kts | 56° |
| 2026-04-28 22:27 | 36.01874 | -96.18208 | 26911 ft | 418 kts | 56° |
| 2026-04-28 22:27 | 36.03295 | -96.15069 | 27192 ft | 419 kts | 56° |
| 2026-04-28 22:27 | 36.04719 | -96.11919 | 27480 ft | 421 kts | 56° |
| 2026-04-28 22:27 | 36.06147 | -96.08757 | 27732 ft | 423 kts | 56° |
| 2026-04-28 22:28 | 36.07582 | -96.05577 | 28013 ft | 424 kts | 56° |
| 2026-04-28 22:28 | 36.09016 | -96.02395 | 28297 ft | 425 kts | 56° |
| 2026-04-28 22:28 | 36.10455 | -95.99200 | 28591 ft | 426 kts | 56° |
| 2026-04-28 22:28 | 36.11904 | -95.95980 | 28764 ft | 431 kts | 56° |
| 2026-04-28 22:29 | 36.13366 | -95.92728 | 28975 ft | 433 kts | 56° |
| 2026-04-28 22:29 | 36.14828 | -95.89468 | 29242 ft | 434 kts | 57° |
| 2026-04-28 22:29 | 36.16292 | -95.86201 | 29500 ft | 435 kts | 56° |
| 2026-04-28 22:29 | 36.17760 | -95.82927 | 29732 ft | 436 kts | 56° |
| 2026-04-28 22:30 | 36.19231 | -95.79636 | 29946 ft | 438 kts | 58° |
| 2026-04-28 22:30 | 36.20516 | -95.76192 | 30115 ft | 443 kts | 65° |
| 2026-04-28 22:30 | 36.21604 | -95.72612 | 30314 ft | 444 kts | 68° |
| 2026-04-28 22:30 | 36.22637 | -95.69005 | 30508 ft | 445 kts | 68° |
| 2026-04-28 22:31 | 36.23655 | -95.65385 | 30738 ft | 444 kts | 68° |
| 2026-04-28 22:31 | 36.24675 | -95.61772 | 30901 ft | 445 kts | 68° |
| 2026-04-28 22:31 | 36.25709 | -95.58146 | 31049 ft | 447 kts | 68° |
| 2026-04-28 22:31 | 36.26755 | -95.54511 | 31199 ft | 449 kts | 68° |
| 2026-04-28 22:32 | 36.27809 | -95.50871 | 31362 ft | 449 kts | 68° |
| 2026-04-28 22:32 | 36.28868 | -95.47226 | 31529 ft | 450 kts | 68° |
| 2026-04-28 22:32 | 36.29932 | -95.43569 | 31687 ft | 451 kts | 68° |
| 2026-04-28 22:32 | 36.30998 | -95.39905 | 31836 ft | 452 kts | 67° |
| 2026-04-28 22:33 | 36.32066 | -95.36232 | 31988 ft | 453 kts | 67° |
| 2026-04-28 22:33 | 36.33135 | -95.32549 | 32117 ft | 454 kts | 68° |
| 2026-04-28 22:33 | 36.34202 | -95.28867 | 32339 ft | 453 kts | 68° |
| 2026-04-28 22:33 | 36.35262 | -95.25198 | 32531 ft | 452 kts | 68° |
| 2026-04-28 22:34 | 36.36324 | -95.21521 | 32657 ft | 454 kts | 68° |
| 2026-04-28 22:34 | 36.38456 | -95.14128 | 32875 ft | 456 kts | 68° |
| 2026-04-28 22:34 | 36.39525 | -95.10415 | 33043 ft | 457 kts | 68° |
| 2026-04-28 22:35 | 36.40595 | -95.06688 | 33097 ft | 460 kts | 68° |
| 2026-04-28 22:35 | 36.42750 | -94.99172 | 33289 ft | 462 kts | 68° |
| 2026-04-28 22:35 | 36.43812 | -94.95461 | 33431 ft | 462 kts | 68° |
| 2026-04-28 22:36 | 36.44900 | -94.91651 | 33578 ft | 462 kts | 68° |
| 2026-04-28 22:36 | 36.45957 | -94.87943 | 33733 ft | 461 kts | 68° |
| 2026-04-28 22:36 | 36.47042 | -94.84135 | 33824 ft | 462 kts | 68° |
| 2026-04-28 22:37 | 36.49177 | -94.76629 | 33995 ft | 464 kts | 68° |
| 2026-04-28 22:37 | 36.51326 | -94.69048 | 34164 ft | 466 kts | 68° |
| 2026-04-28 22:38 | 36.53476 | -94.61446 | 34324 ft | 467 kts | 68° |
| 2026-04-28 22:38 | 36.55620 | -94.53841 | 34678 ft | 459 kts | 69° |
| 2026-04-28 22:38 | 36.56668 | -94.50112 | 34888 ft | 457 kts | 69° |
| 2026-04-28 22:39 | 36.57720 | -94.46369 | 34893 ft | 459 kts | 69° |
| 2026-04-28 22:39 | 36.59834 | -94.38834 | 34908 ft | 463 kts | 69° |
| 2026-04-28 22:40 | 36.61959 | -94.31236 | 34988 ft | 465 kts | 69° |
| 2026-04-28 22:40 | 36.64083 | -94.23617 | 35105 ft | 466 kts | 69° |
| 2026-04-28 22:41 | 36.66204 | -94.15989 | 35251 ft | 465 kts | 70° |
| 2026-04-28 22:41 | 36.67257 | -94.12190 | 35395 ft | 463 kts | 70° |
| 2026-04-28 22:41 | 36.68309 | -94.08393 | 35471 ft | 464 kts | 70° |
| 2026-04-28 22:42 | 36.70421 | -94.00754 | 35490 ft | 468 kts | 70° |
| 2026-04-28 22:42 | 36.72542 | -93.93062 | 35516 ft | 471 kts | 70° |
| 2026-04-28 22:43 | 36.74665 | -93.85336 | 35607 ft | 471 kts | 70° |
| 2026-04-28 22:43 | 36.76784 | -93.77604 | 35739 ft | 470 kts | 71° |
| 2026-04-28 22:43 | 36.77835 | -93.73759 | 35877 ft | 467 kts | 71° |
| 2026-04-28 22:44 | 36.78883 | -93.69924 | 35933 ft | 468 kts | 71° |
| 2026-04-28 22:44 | 36.80983 | -93.62214 | 35954 ft | 470 kts | 71° |
| 2026-04-28 22:45 | 36.83068 | -93.54539 | 36033 ft | 470 kts | 71° |
| 2026-04-28 22:45 | 36.85178 | -93.46751 | 36108 ft | 471 kts | 71° |
| 2026-04-28 22:46 | 36.87273 | -93.38994 | 36168 ft | 472 kts | 71° |
| 2026-04-28 22:46 | 36.89351 | -93.31280 | 36223 ft | 472 kts | 71° |
| 2026-04-28 22:47 | 36.91438 | -93.23505 | 36316 ft | 472 kts | 71° |
| 2026-04-28 22:47 | 36.93524 | -93.15711 | 36364 ft | 473 kts | 71° |
| 2026-04-28 22:48 | 36.95608 | -93.07904 | 36441 ft | 474 kts | 72° |
| 2026-04-28 22:48 | 36.97695 | -93.00064 | 36451 ft | 476 kts | 72° |
| 2026-04-28 22:49 | 36.99782 | -92.92196 | 36472 ft | 477 kts | 72° |
| 2026-04-28 22:49 | 37.01870 | -92.84299 | 36497 ft | 479 kts | 72° |
| 2026-04-28 22:49 | 37.02912 | -92.80349 | 36611 ft | 476 kts | 72° |
| 2026-04-28 22:50 | 37.03937 | -92.76461 | 37007 ft | 466 kts | 72° |
| 2026-04-28 22:50 | 37.04942 | -92.72645 | 37362 ft | 458 kts | 72° |
| 2026-04-28 22:50 | 37.05928 | -92.68895 | 37732 ft | 449 kts | 72° |
| 2026-04-28 22:50 | 37.06892 | -92.65223 | 38105 ft | 439 kts | 73° |
| 2026-04-28 22:51 | 37.07842 | -92.61599 | 38198 ft | 439 kts | 73° |
| 2026-04-28 22:51 | 37.09745 | -92.54311 | 38216 ft | 441 kts | 73° |
| 2026-04-28 22:52 | 37.11652 | -92.46991 | 38246 ft | 443 kts | 73° |
| 2026-04-28 22:52 | 37.13562 | -92.39639 | 38263 ft | 444 kts | 73° |
| 2026-04-28 22:53 | 37.15475 | -92.32257 | 38283 ft | 446 kts | 73° |
| 2026-04-28 22:53 | 37.17390 | -92.24845 | 38275 ft | 448 kts | 74° |
| 2026-04-28 22:54 | 37.19310 | -92.17394 | 38298 ft | 450 kts | 74° |
| 2026-04-28 22:54 | 37.21217 | -92.09969 | 38315 ft | 451 kts | 74° |
| 2026-04-28 22:55 | 37.23141 | -92.02458 | 38361 ft | 453 kts | 73° |
| 2026-04-28 22:55 | 37.25066 | -91.94920 | 38390 ft | 454 kts | 74° |
| 2026-04-28 22:56 | 37.26991 | -91.87357 | 38389 ft | 456 kts | 74° |
| 2026-04-28 22:56 | 37.28919 | -91.79761 | 38411 ft | 457 kts | 75° |
| 2026-04-28 22:57 | 37.30847 | -91.72140 | 38432 ft | 458 kts | 75° |
| 2026-04-28 22:57 | 37.32777 | -91.64493 | 38452 ft | 460 kts | 75° |
| 2026-04-28 22:58 | 37.34705 | -91.56827 | 38459 ft | 461 kts | 75° |
| 2026-04-28 22:58 | 37.36632 | -91.49140 | 38435 ft | 462 kts | 75° |
| 2026-04-28 22:59 | 37.38567 | -91.41396 | 38139 ft | 469 kts | 76° |
| 2026-04-28 22:59 | 37.40513 | -91.33584 | 38220 ft | 468 kts | 76° |
| 2026-04-28 23:00 | 37.42455 | -91.25765 | 38225 ft | 469 kts | 76° |
| 2026-04-28 23:00 | 37.44068 | -91.19255 | 38145 ft | 471 kts | 76° |
| 2026-04-28 23:00 | 37.45046 | -91.15292 | 37856 ft | 478 kts | 76° |
| 2026-04-28 23:01 | 37.46036 | -91.11272 | 37598 ft | 484 kts | 76° |
| 2026-04-28 23:01 | 37.47038 | -91.07197 | 37349 ft | 491 kts | 76° |
| 2026-04-28 23:01 | 37.48053 | -91.03067 | 37156 ft | 497 kts | 75° |
| 2026-04-28 23:01 | 37.49078 | -90.98890 | 36989 ft | 501 kts | 76° |
| 2026-04-28 23:02 | 37.50106 | -90.94702 | 36966 ft | 501 kts | 75° |
| 2026-04-28 23:02 | 37.52156 | -90.86329 | 36953 ft | 500 kts | 76° |
| 2026-04-28 23:03 | 37.54195 | -90.77961 | 36964 ft | 499 kts | 76° |
| 2026-04-28 23:03 | 37.56224 | -90.69601 | 36945 ft | 498 kts | 75° |
| 2026-04-28 23:04 | 37.58243 | -90.61251 | 36939 ft | 498 kts | 75° |
| 2026-04-28 23:04 | 37.61257 | -90.48722 | 36928 ft | 497 kts | 76° |
| 2026-04-28 23:05 | 37.63260 | -90.40367 | 36926 ft | 497 kts | 76° |
| 2026-04-28 23:05 | 37.65256 | -90.32004 | 36923 ft | 499 kts | 74° |
| 2026-04-28 23:06 | 37.67236 | -90.23610 | 36930 ft | 499 kts | 77° |
| 2026-04-28 23:06 | 37.68431 | -90.15026 | 36953 ft | 496 kts | 86° |
| 2026-04-28 23:07 | 37.69314 | -90.06392 | 36950 ft | 496 kts | 86° |
| 2026-04-28 23:07 | 37.70206 | -89.97752 | 36996 ft | 497 kts | 85° |
| 2026-04-28 23:08 | 37.71143 | -89.89100 | 36998 ft | 497 kts | 84° |
| 2026-04-28 23:08 | 37.72100 | -89.80416 | 36989 ft | 508 kts | 85° |
| 2026-04-28 23:09 | 37.73079 | -89.71472 | 37014 ft | 520 kts | 85° |
| 2026-04-28 23:09 | 37.74073 | -89.62312 | 37009 ft | 532 kts | 85° |
| 2026-04-28 23:10 | 37.75081 | -89.52956 | 37131 ft | 542 kts | 85° |
| 2026-04-28 23:10 | 37.75589 | -89.48219 | 37246 ft | 546 kts | 85° |
| 2026-04-28 23:10 | 37.76098 | -89.43451 | 37436 ft | 548 kts | 85° |
| 2026-04-28 23:11 | 37.76605 | -89.38684 | 37733 ft | 547 kts | 85° |
| 2026-04-28 23:11 | 37.77109 | -89.33939 | 38068 ft | 544 kts | 85° |
| 2026-04-28 23:11 | 37.77610 | -89.29200 | 38393 ft | 542 kts | 85° |
| 2026-04-28 23:11 | 37.78106 | -89.24482 | 38692 ft | 541 kts | 85° |
| 2026-04-28 23:12 | 37.78599 | -89.19771 | 38836 ft | 542 kts | 85° |
| 2026-04-28 23:12 | 37.79092 | -89.15040 | 38936 ft | 544 kts | 85° |
| 2026-04-28 23:12 | 37.80076 | -89.05518 | 39032 ft | 549 kts | 85° |
| 2026-04-28 23:13 | 37.81064 | -88.95880 | 39039 ft | 556 kts | 85° |
| 2026-04-28 23:13 | 37.82055 | -88.86154 | 39034 ft | 559 kts | 85° |
| 2026-04-28 23:14 | 37.83044 | -88.76368 | 39037 ft | 560 kts | 85° |
| 2026-04-28 23:14 | 37.84019 | -88.66663 | 39041 ft | 551 kts | 85° |
| 2026-04-28 23:15 | 37.84973 | -88.57065 | 39063 ft | 550 kts | 85° |
| 2026-04-28 23:15 | 37.85915 | -88.47475 | 39064 ft | 549 kts | 85° |
| 2026-04-28 23:16 | 37.86851 | -88.37882 | 39052 ft | 550 kts | 85° |
| 2026-04-28 23:16 | 37.87783 | -88.28250 | 39037 ft | 552 kts | 85° |
| 2026-04-28 23:17 | 37.88709 | -88.18600 | 39005 ft | 553 kts | 85° |
| 2026-04-28 23:17 | 37.89623 | -88.08986 | 38991 ft | 555 kts | 85° |
| 2026-04-28 23:18 | 37.90540 | -87.99264 | 38994 ft | 557 kts | 86° |
| 2026-04-28 23:18 | 37.91449 | -87.89526 | 39005 ft | 558 kts | 86° |
| 2026-04-28 23:19 | 37.92354 | -87.79754 | 39007 ft | 559 kts | 86° |
| 2026-04-28 23:19 | 37.93252 | -87.69965 | 39061 ft | 560 kts | 86° |
| 2026-04-28 23:20 | 37.94143 | -87.60150 | 39008 ft | 562 kts | 86° |
| 2026-04-28 23:20 | 37.95028 | -87.50318 | 38999 ft | 562 kts | 86° |
| 2026-04-28 23:21 | 37.95905 | -87.40485 | 38995 ft | 561 kts | 86° |
| 2026-04-28 23:21 | 37.96773 | -87.30656 | 38985 ft | 561 kts | 86° |
| 2026-04-28 23:22 | 37.97632 | -87.20828 | 38994 ft | 561 kts | 86° |
| 2026-04-28 23:22 | 37.98482 | -87.11001 | 38995 ft | 561 kts | 86° |
| 2026-04-28 23:23 | 37.99323 | -87.01169 | 38990 ft | 561 kts | 86° |
| 2026-04-28 23:23 | 38.00155 | -86.91337 | 38985 ft | 561 kts | 85° |
| 2026-04-28 23:24 | 38.00974 | -86.81566 | 38986 ft | 561 kts | 86° |
| 2026-04-28 23:24 | 38.01770 | -86.71725 | 38985 ft | 561 kts | 86° |
| 2026-04-28 23:25 | 38.02547 | -86.61887 | 38966 ft | 561 kts | 86° |
| 2026-04-28 23:25 | 38.03318 | -86.52044 | 38961 ft | 561 kts | 85° |
| 2026-04-28 23:26 | 38.04083 | -86.42200 | 38965 ft | 560 kts | 85° |
| 2026-04-28 23:26 | 38.04839 | -86.32368 | 38973 ft | 560 kts | 86° |
| 2026-04-28 23:27 | 38.05588 | -86.22526 | 38969 ft | 561 kts | 86° |
| 2026-04-28 23:27 | 38.06328 | -86.12680 | 38981 ft | 561 kts | 85° |
| 2026-04-28 23:28 | 38.07061 | -86.02819 | 38979 ft | 561 kts | 85° |
| 2026-04-28 23:28 | 38.07784 | -85.92972 | 38985 ft | 561 kts | 85° |
| 2026-04-28 23:29 | 38.08499 | -85.83118 | 38991 ft | 560 kts | 85° |
| 2026-04-28 23:29 | 38.09197 | -85.73270 | 38995 ft | 560 kts | 85° |
| 2026-04-28 23:30 | 38.09896 | -85.63437 | 38996 ft | 559 kts | 85° |
| 2026-04-28 23:30 | 38.09876 | -85.53616 | 38986 ft | 552 kts | 104° |
| 2026-04-28 23:31 | 38.08364 | -85.44109 | 38991 ft | 549 kts | 107° |
| 2026-04-28 23:31 | 38.06767 | -85.34622 | 38973 ft | 550 kts | 107° |
| 2026-04-28 23:32 | 38.05234 | -85.25101 | 38984 ft | 551 kts | 105° |
| 2026-04-28 23:32 | 38.03740 | -85.15560 | 38989 ft | 552 kts | 106° |
| 2026-04-28 23:33 | 38.02233 | -85.06006 | 38994 ft | 553 kts | 106° |
| 2026-04-28 23:33 | 38.00720 | -84.96447 | 38996 ft | 553 kts | 105° |
| 2026-04-28 23:34 | 37.99196 | -84.86883 | 39001 ft | 554 kts | 105° |
| 2026-04-28 23:34 | 37.97673 | -84.77379 | 39022 ft | 554 kts | 105° |
| 2026-04-28 23:35 | 37.96129 | -84.67805 | 38993 ft | 555 kts | 105° |
| 2026-04-28 23:35 | 37.94573 | -84.58209 | 38993 ft | 556 kts | 105° |
| 2026-04-28 23:36 | 37.93008 | -84.48609 | 38995 ft | 557 kts | 105° |
| 2026-04-28 23:36 | 37.91432 | -84.38993 | 38999 ft | 558 kts | 105° |
| 2026-04-28 23:37 | 37.89849 | -84.29381 | 39013 ft | 558 kts | 105° |
| 2026-04-28 23:37 | 37.88259 | -84.19785 | 39018 ft | 557 kts | 105° |
| 2026-04-28 23:38 | 37.86663 | -84.10197 | 39012 ft | 556 kts | 105° |
| 2026-04-28 23:38 | 37.85062 | -84.00633 | 39012 ft | 555 kts | 105° |
| 2026-04-28 23:39 | 37.83456 | -83.91089 | 39002 ft | 554 kts | 105° |
| 2026-04-28 23:39 | 37.81844 | -83.81563 | 39025 ft | 553 kts | 105° |
| 2026-04-28 23:40 | 37.80227 | -83.72057 | 39016 ft | 553 kts | 105° |
| 2026-04-28 23:40 | 37.78604 | -83.62561 | 39013 ft | 552 kts | 105° |
| 2026-04-28 23:41 | 37.76978 | -83.53093 | 39007 ft | 550 kts | 105° |
| 2026-04-28 23:41 | 37.75349 | -83.43663 | 39037 ft | 549 kts | 105° |
| 2026-04-28 23:42 | 37.73715 | -83.34248 | 39045 ft | 548 kts | 105° |
| 2026-04-28 23:42 | 37.72077 | -83.24858 | 39039 ft | 547 kts | 105° |
| 2026-04-28 23:43 | 37.70432 | -83.15474 | 39039 ft | 547 kts | 105° |
| 2026-04-28 23:43 | 37.68785 | -83.06113 | 39037 ft | 546 kts | 104° |
| 2026-04-28 23:44 | 37.67134 | -82.96714 | 39038 ft | 545 kts | 104° |
| 2026-04-28 23:44 | 37.65475 | -82.87422 | 39037 ft | 545 kts | 105° |
| 2026-04-28 23:45 | 37.63890 | -82.78133 | 39043 ft | 546 kts | 99° |
| 2026-04-28 23:45 | 37.63766 | -82.68533 | 39042 ft | 543 kts | 80° |
| 2026-04-28 23:46 | 37.64751 | -82.59160 | 39067 ft | 543 kts | 79° |
| 2026-04-28 23:46 | 37.65755 | -82.49707 | 38997 ft | 544 kts | 80° |
| 2026-04-28 23:47 | 37.66683 | -82.40230 | 39009 ft | 545 kts | 80° |
| 2026-04-28 23:47 | 37.67569 | -82.30736 | 38993 ft | 544 kts | 80° |
| 2026-04-28 23:48 | 37.68439 | -82.21286 | 38999 ft | 541 kts | 80° |
| 2026-04-28 23:48 | 37.69306 | -82.11860 | 39052 ft | 539 kts | 80° |
| 2026-04-28 23:49 | 37.70026 | -82.03974 | 39007 ft | 540 kts | 80° |
| 2026-04-28 23:49 | 37.70874 | -81.94628 | 39021 ft | 539 kts | 80° |
| 2026-04-28 23:50 | 37.71717 | -81.85253 | 39002 ft | 536 kts | 80° |
| 2026-04-28 23:50 | 37.72548 | -81.75915 | 39025 ft | 534 kts | 80° |
| 2026-04-28 23:51 | 37.73372 | -81.66588 | 39030 ft | 535 kts | 80° |
| 2026-04-28 23:51 | 37.74188 | -81.57243 | 39025 ft | 535 kts | 80° |
| 2026-04-28 23:52 | 37.74996 | -81.47908 | 39041 ft | 534 kts | 80° |
| 2026-04-28 23:52 | 37.75795 | -81.38586 | 39048 ft | 533 kts | 80° |
| 2026-04-28 23:53 | 37.76584 | -81.29287 | 39053 ft | 532 kts | 80° |
| 2026-04-28 23:53 | 37.77362 | -81.20012 | 39057 ft | 530 kts | 80° |
| 2026-04-28 23:54 | 37.78392 | -81.10840 | 39036 ft | 520 kts | 65° |
| 2026-04-28 23:54 | 37.79783 | -81.06700 | 39077 ft | 509 kts | 58° |
| 2026-04-28 23:54 | 37.81316 | -81.02661 | 39051 ft | 509 kts | 57° |
| 2026-04-28 23:55 | 37.84322 | -80.94564 | 39083 ft | 509 kts | 59° |
| 2026-04-28 23:55 | 37.87219 | -80.86387 | 39056 ft | 509 kts | 59° |
| 2026-04-28 23:56 | 37.90004 | -80.78150 | 39051 ft | 509 kts | 62° |
| 2026-04-28 23:56 | 37.92596 | -80.69804 | 39052 ft | 509 kts | 63° |
| 2026-04-28 23:57 | 37.95137 | -80.61438 | 39031 ft | 509 kts | 63° |
| 2026-04-28 23:57 | 37.97683 | -80.53072 | 39063 ft | 509 kts | 63° |
| 2026-04-28 23:58 | 38.00252 | -80.44657 | 38819 ft | 518 kts | 62° |
| 2026-04-28 23:58 | 38.01563 | -80.40374 | 38580 ft | 522 kts | 62° |
| 2026-04-28 23:58 | 38.02870 | -80.36081 | 38301 ft | 521 kts | 62° |
| 2026-04-28 23:59 | 38.04168 | -80.31803 | 38027 ft | 519 kts | 62° |
| 2026-04-28 23:59 | 38.05463 | -80.27526 | 37754 ft | 520 kts | 62° |
| 2026-04-28 23:59 | 38.06759 | -80.23243 | 37497 ft | 520 kts | 62° |
| 2026-04-28 23:59 | 38.08054 | -80.18957 | 37232 ft | 520 kts | 62° |
| 2026-04-29 00:00 | 38.09347 | -80.14671 | 36980 ft | 521 kts | 62° |
| 2026-04-29 00:00 | 38.10642 | -80.10369 | 36725 ft | 522 kts | 62° |
| 2026-04-29 00:00 | 38.11939 | -80.06062 | 36478 ft | 523 kts | 62° |
| 2026-04-29 00:00 | 38.13237 | -80.01745 | 36235 ft | 524 kts | 62° |
| 2026-04-29 00:01 | 38.14538 | -79.97412 | 35985 ft | 525 kts | 62° |
| 2026-04-29 00:01 | 38.15835 | -79.93084 | 35749 ft | 525 kts | 62° |
| 2026-04-29 00:01 | 38.17134 | -79.88739 | 35509 ft | 525 kts | 62° |
| 2026-04-29 00:01 | 38.18428 | -79.84401 | 35257 ft | 525 kts | 62° |
| 2026-04-29 00:02 | 38.19716 | -79.80076 | 34993 ft | 522 kts | 62° |
| 2026-04-29 00:02 | 38.20981 | -79.75820 | 34805 ft | 520 kts | 61° |
| 2026-04-29 00:02 | 38.22263 | -79.71492 | 34393 ft | 514 kts | 60° |
| 2026-04-29 00:02 | 38.23498 | -79.67316 | 34026 ft | 509 kts | 60° |
| 2026-04-29 00:03 | 38.24759 | -79.63056 | 33536 ft | 506 kts | 60° |
| 2026-04-29 00:03 | 38.25979 | -79.58931 | 33098 ft | 503 kts | 60° |
| 2026-04-29 00:03 | 38.27203 | -79.54788 | 32655 ft | 499 kts | 60° |
| 2026-04-29 00:03 | 38.28416 | -79.50675 | 32240 ft | 494 kts | 60° |
| 2026-04-29 00:04 | 38.29618 | -79.46595 | 31807 ft | 490 kts | 60° |
| 2026-04-29 00:04 | 38.30809 | -79.42543 | 31402 ft | 486 kts | 60° |
| 2026-04-29 00:04 | 38.31985 | -79.38536 | 31001 ft | 481 kts | 60° |
| 2026-04-29 00:04 | 38.33150 | -79.34564 | 30578 ft | 477 kts | 60° |
| 2026-04-29 00:05 | 38.34302 | -79.30627 | 30179 ft | 472 kts | 60° |
| 2026-04-29 00:05 | 38.35442 | -79.26727 | 29688 ft | 467 kts | 60° |
| 2026-04-29 00:05 | 38.36567 | -79.22869 | 29248 ft | 462 kts | 61° |
| 2026-04-29 00:05 | 38.37678 | -79.19057 | 28805 ft | 456 kts | 61° |
| 2026-04-29 00:06 | 38.38773 | -79.15292 | 28371 ft | 451 kts | 61° |
| 2026-04-29 00:06 | 38.39856 | -79.11567 | 27973 ft | 446 kts | 62° |
| 2026-04-29 00:06 | 38.40929 | -79.07873 | 27541 ft | 442 kts | 62° |
| 2026-04-29 00:06 | 38.41988 | -79.04221 | 27123 ft | 437 kts | 63° |
| 2026-04-29 00:07 | 38.43036 | -79.00602 | 26720 ft | 433 kts | 63° |
| 2026-04-29 00:07 | 38.44073 | -78.97014 | 26306 ft | 429 kts | 64° |
| 2026-04-29 00:07 | 38.45101 | -78.93453 | 25906 ft | 426 kts | 64° |
| 2026-04-29 00:07 | 38.46119 | -78.89922 | 25507 ft | 422 kts | 64° |
| 2026-04-29 00:08 | 38.47128 | -78.86417 | 25099 ft | 419 kts | 64° |
| 2026-04-29 00:08 | 38.48129 | -78.82934 | 24705 ft | 416 kts | 64° |
| 2026-04-29 00:08 | 38.49122 | -78.79475 | 24311 ft | 414 kts | 64° |
| 2026-04-29 00:08 | 38.50106 | -78.76037 | 23904 ft | 412 kts | 64° |
| 2026-04-29 00:09 | 38.51084 | -78.72618 | 23497 ft | 409 kts | 64° |
| 2026-04-29 00:09 | 38.52059 | -78.69211 | 23037 ft | 407 kts | 65° |
| 2026-04-29 00:09 | 38.53022 | -78.65835 | 22638 ft | 404 kts | 66° |
| 2026-04-29 00:09 | 38.53785 | -78.62385 | 22206 ft | 403 kts | 73° |
| 2026-04-29 00:10 | 38.54328 | -78.58881 | 21822 ft | 400 kts | 76° |
| 2026-04-29 00:10 | 38.54814 | -78.55394 | 21430 ft | 397 kts | 76° |
| 2026-04-29 00:10 | 38.55306 | -78.51937 | 21044 ft | 394 kts | 76° |
| 2026-04-29 00:10 | 38.55820 | -78.48514 | 20662 ft | 391 kts | 76° |
| 2026-04-29 00:11 | 38.56349 | -78.45125 | 20291 ft | 387 kts | 76° |
| 2026-04-29 00:11 | 38.56882 | -78.41763 | 19904 ft | 385 kts | 76° |
| 2026-04-29 00:11 | 38.57995 | -78.35083 | 19088 ft | 382 kts | 75° |
| 2026-04-29 00:12 | 38.58579 | -78.31784 | 18713 ft | 379 kts | 75° |
| 2026-04-29 00:12 | 38.59154 | -78.28514 | 18354 ft | 376 kts | 75° |
| 2026-04-29 00:12 | 38.59721 | -78.25264 | 17926 ft | 373 kts | 75° |
| 2026-04-29 00:12 | 38.60456 | -78.22149 | 17533 ft | 368 kts | 65° |
| 2026-04-29 00:13 | 38.61473 | -78.19123 | 17160 ft | 363 kts | 63° |
| 2026-04-29 00:13 | 38.62490 | -78.16230 | 16812 ft | 360 kts | 63° |
| 2026-04-29 00:13 | 38.63492 | -78.13267 | 16465 ft | 357 kts | 64° |
| 2026-04-29 00:13 | 38.64434 | -78.10391 | 16100 ft | 354 kts | 64° |
| 2026-04-29 00:14 | 38.65370 | -78.07488 | 15744 ft | 352 kts | 64° |
| 2026-04-29 00:14 | 38.66311 | -78.04561 | 15377 ft | 350 kts | 64° |
| 2026-04-29 00:14 | 38.67220 | -78.01731 | 15009 ft | 347 kts | 64° |
| 2026-04-29 00:14 | 38.68146 | -77.98844 | 14663 ft | 345 kts | 64° |
| 2026-04-29 00:15 | 38.69056 | -77.96005 | 14313 ft | 343 kts | 64° |
| 2026-04-29 00:15 | 38.69958 | -77.93184 | 13977 ft | 342 kts | 65° |
| 2026-04-29 00:15 | 38.70856 | -77.90376 | 13601 ft | 340 kts | 65° |
| 2026-04-29 00:15 | 38.71736 | -77.87624 | 13237 ft | 337 kts | 64° |
| 2026-04-29 00:16 | 38.72615 | -77.84866 | 13063 ft | 330 kts | 64° |
| 2026-04-29 00:16 | 38.73575 | -77.82255 | 12841 ft | 319 kts | 51° |
| 2026-04-29 00:16 | 38.74991 | -77.80133 | 12583 ft | 311 kts | 43° |
| 2026-04-29 00:16 | 38.76458 | -77.78109 | 12247 ft | 309 kts | 43° |
| 2026-04-29 00:17 | 38.77907 | -77.76080 | 11926 ft | 308 kts | 43° |
| 2026-04-29 00:17 | 38.79337 | -77.74045 | 11610 ft | 307 kts | 43° |
| 2026-04-29 00:17 | 38.80754 | -77.72008 | 11295 ft | 305 kts | 43° |
| 2026-04-29 00:17 | 38.82159 | -77.69981 | 10969 ft | 304 kts | 44° |
| 2026-04-29 00:18 | 38.83541 | -77.67933 | 10641 ft | 303 kts | 44° |
| 2026-04-29 00:18 | 38.84906 | -77.65875 | 10308 ft | 302 kts | 44° |
| 2026-04-29 00:18 | 38.86266 | -77.63822 | 9987 ft | 301 kts | 44° |
| 2026-04-29 00:18 | 38.87597 | -77.61808 | 9925 ft | 289 kts | 44° |
| 2026-04-29 00:19 | 38.88904 | -77.59836 | 9385 ft | 296 kts | 44° |
| 2026-04-29 00:19 | 38.90226 | -77.57846 | 8982 ft | 290 kts | 45° |
| 2026-04-29 00:19 | 38.91516 | -77.55899 | 8648 ft | 282 kts | 45° |
| 2026-04-29 00:19 | 38.92767 | -77.54011 | 8328 ft | 274 kts | 44° |
| 2026-04-29 00:20 | 38.93981 | -77.52175 | 8024 ft | 266 kts | 46° |
| 2026-04-29 00:20 | 38.94933 | -77.50144 | 7719 ft | 266 kts | 62° |
| 2026-04-29 00:20 | 38.95625 | -77.47974 | 7443 ft | 259 kts | 63° |
| 2026-04-29 00:20 | 38.96300 | -77.45853 | 7151 ft | 254 kts | 63° |
| 2026-04-29 00:21 | 38.96969 | -77.43782 | 6872 ft | 248 kts | 62° |
| 2026-04-29 00:21 | 38.97632 | -77.41760 | 6603 ft | 243 kts | 62° |
| 2026-04-29 00:21 | 38.98288 | -77.39778 | 6325 ft | 239 kts | 62° |
| 2026-04-29 00:21 | 38.98938 | -77.37824 | 6053 ft | 237 kts | 62° |
| 2026-04-29 00:22 | 38.99585 | -77.35882 | 5791 ft | 236 kts | 62° |
| 2026-04-29 00:22 | 39.00229 | -77.33951 | 5532 ft | 235 kts | 63° |
| 2026-04-29 00:22 | 39.00881 | -77.32002 | 5280 ft | 239 kts | 63° |
| 2026-04-29 00:22 | 39.01542 | -77.30038 | 5046 ft | 238 kts | 63° |
| 2026-04-29 00:23 | 39.02194 | -77.28097 | 4754 ft | 234 kts | 63° |
| 2026-04-29 00:23 | 39.02827 | -77.26200 | 4503 ft | 228 kts | 66° |
| 2026-04-29 00:23 | 39.03013 | -77.24194 | 4201 ft | 231 kts | 102° |
| 2026-04-29 00:23 | 39.02276 | -77.22386 | 3982 ft | 230 kts | 131° |
| 2026-04-29 00:24 | 39.01151 | -77.20934 | 3731 ft | 229 kts | 139° |
| 2026-04-29 00:24 | 38.99984 | -77.19552 | 3471 ft | 225 kts | 140° |
| 2026-04-29 00:24 | 38.98857 | -77.18202 | 3239 ft | 218 kts | 139° |
| 2026-04-29 00:24 | 38.97785 | -77.16891 | 2960 ft | 207 kts | 139° |
| 2026-04-29 00:25 | 38.96774 | -77.15652 | 2749 ft | 194 kts | 140° |
| 2026-04-29 00:25 | 38.95799 | -77.14514 | 2506 ft | 185 kts | 142° |
| 2026-04-29 00:25 | 38.94846 | -77.13456 | 2263 ft | 177 kts | 142° |
| 2026-04-29 00:25 | 38.93934 | -77.12445 | 2039 ft | 169 kts | 142° |
| 2026-04-29 00:26 | 38.93027 | -77.11585 | 1832 ft | 156 kts | 153° |
| 2026-04-29 00:26 | 38.92096 | -77.10968 | 1625 ft | 144 kts | 154° |
| 2026-04-29 00:26 | 38.91239 | -77.10373 | 1453 ft | 140 kts | 145° |
| 2026-04-29 00:26 | 38.90657 | -77.09396 | 1279 ft | 140 kts | 115° |
| 2026-04-29 00:27 | 38.90399 | -77.08187 | 1102 ft | 139 kts | 109° |
| 2026-04-29 00:27 | 38.89988 | -77.07064 | 962 ft | 141 kts | 127° |
| 2026-04-29 00:27 | 38.89314 | -77.06154 | 799 ft | 141 kts | 134° |
| 2026-04-29 00:27 | 38.88634 | -77.05252 | 621 ft | 140 kts | 132° |
| 2026-04-29 00:28 | 38.87938 | -77.04358 | 437 ft | 143 kts | 139° |
| 2026-04-29 00:28 | 38.87029 | -77.03876 | 197 ft | 145 kts | 176° |